Time;durP1;ratioP1;P1;durP2;ratioP2;P2;SDS_P1;SDS_P2;PMS_P1;PMS_P2;Temp;Humidity;BMP_temperature;BMP_pressure;BME280_temperature;BME280_humidity;BME280_pressure;Samples;Min_cycle;Max_cycle;Signal;HPM_P1;HPM_P2
2021/01/15 00:02:02;;;;;;;3.92;1.30;;;-2.10;99.90;;;;;;4993858;28;20049;-75
2021/01/15 00:04:30;;;;;;;4.20;2.20;;;-2.20;99.90;;;;;;4993589;28;20476;-77
2021/01/15 00:07:05;;;;;;;3.83;1.23;;;-2.20;99.90;;;;;;5011455;28;20184;-77
2021/01/15 00:09:32;;;;;;;4.90;1.38;;;-2.20;99.90;;;;;;4993552;28;20042;-77
2021/01/15 00:11:58;;;;;;;4.50;2.20;;;-2.30;99.90;;;;;;4993589;28;20037;-75
2021/01/15 00:14:25;;;;;;;4.85;1.73;;;-2.30;99.90;;;;;;4993780;28;20034;-75
2021/01/15 00:16:53;;;;;;;3.60;1.40;;;-2.30;99.90;;;;;;4993472;28;20042;-76
2021/01/15 00:19:19;;;;;;;3.58;1.70;;;-2.40;99.90;;;;;;4994327;28;20030;-76
2021/01/15 00:21:49;;;;;;;5.68;2.00;;;-2.40;99.90;;;;;;4993337;28;20026;-76
2021/01/15 00:24:19;;;;;;;4.40;1.85;;;-2.30;99.90;;;;;;4994136;28;20053;-76
2021/01/15 00:26:47;;;;;;;2.58;1.27;;;-2.30;99.90;;;;;;4992804;28;20050;-76
2021/01/15 00:29:15;;;;;;;4.78;1.52;;;-2.30;99.90;;;;;;4993911;28;20388;-76
2021/01/15 00:31:43;;;;;;;3.65;1.55;;;-2.30;99.90;;;;;;4993433;28;20034;-74
2021/01/15 00:34:14;;;;;;;3.45;1.67;;;-2.40;99.90;;;;;;4993690;28;20049;-75
2021/01/15 00:36:42;;;;;;;1.77;1.02;;;-2.40;99.90;;;;;;4993252;28;20049;-76
2021/01/15 00:39:09;;;;;;;4.20;1.63;;;-2.50;99.90;;;;;;4993661;28;20026;-75
2021/01/15 00:41:37;;;;;;;5.28;1.48;;;-2.50;99.90;;;;;;4992940;28;20042;-75
2021/01/15 00:44:05;;;;;;;4.35;1.88;;;-2.50;99.90;;;;;;4992850;28;20498;-75
2021/01/15 00:46:32;;;;;;;2.85;1.48;;;-2.40;99.90;;;;;;4993318;28;20038;-75
2021/01/15 00:49:09;;;;;;;5.63;1.67;;;-2.50;99.90;;;;;;4992521;28;20057;-76
2021/01/15 00:51:38;;;;;;;8.73;2.17;;;-2.60;99.90;;;;;;4975592;28;20045;-75
2021/01/15 00:54:06;;;;;;;4.63;1.63;;;-2.60;99.90;;;;;;5012802;28;20046;-75
2021/01/15 00:56:33;;;;;;;3.78;1.38;;;-2.50;99.90;;;;;;4991165;28;20396;-75
2021/01/15 00:59:03;;;;;;;7.38;1.73;;;-2.50;99.90;;;;;;4990312;28;20038;-76
2021/01/15 01:01:42;;;;;;;2.72;1.30;;;-2.40;99.90;;;;;;4989483;28;20038;-76
2021/01/15 01:04:11;;;;;;;4.70;1.77;;;-2.40;99.90;;;;;;4975301;28;20415;-75
2021/01/15 01:06:38;;;;;;;4.53;1.52;;;-2.50;99.90;;;;;;4993242;28;20022;-75
2021/01/15 01:09:04;;;;;;;5.30;1.95;;;-2.50;99.90;;;;;;4993439;28;20031;-76
2021/01/15 01:11:31;;;;;;;4.55;2.22;;;-2.50;99.90;;;;;;4992785;28;20468;-76
2021/01/15 01:14:03;;;;;;;3.83;1.88;;;-2.50;99.90;;;;;;4992777;28;20126;-76
2021/01/15 01:16:31;;;;;;;4.90;1.80;;;-2.40;99.90;;;;;;4993026;28;20067;-76
2021/01/15 01:18:58;;;;;;;2.80;1.42;;;-2.40;99.90;;;;;;4992232;28;20418;-76
2021/01/15 01:21:25;;;;;;;5.80;2.08;;;-2.40;99.90;;;;;;4992681;28;20034;-76
2021/01/15 01:23:52;;;;;;;2.88;1.58;;;-2.40;99.90;;;;;;4992984;28;20031;-76
2021/01/15 01:26:19;;;;;;;3.60;1.88;;;-2.40;99.90;;;;;;4992057;28;20050;-76
2021/01/15 01:28:46;;;;;;;3.75;1.90;;;-2.50;99.90;;;;;;4992204;28;20050;-76
2021/01/15 01:31:14;;;;;;;3.95;2.22;;;-2.50;99.90;;;;;;4992202;28;20046;-76
2021/01/15 01:33:40;;;;;;;5.00;2.42;;;-2.60;99.90;;;;;;4992597;28;20038;-77
2021/01/15 01:36:08;;;;;;;4.47;1.85;;;-2.60;99.90;;;;;;4992665;28;20030;-76
2021/01/15 01:38:35;;;;;;;5.05;2.63;;;-2.70;99.90;;;;;;4992969;28;20034;-76
2021/01/15 01:41:01;;;;;;;4.35;2.33;;;-2.60;99.90;;;;;;4992430;28;20042;-76
2021/01/15 01:43:27;;;;;;;4.47;1.58;;;-2.60;99.90;;;;;;4992923;28;20499;-76
2021/01/15 01:45:54;;;;;;;4.78;1.83;;;-2.60;99.90;;;;;;4991946;28;20050;-76
2021/01/15 01:48:21;;;;;;;8.38;1.92;;;-2.70;99.90;;;;;;4999928;28;20030;-76
2021/01/15 01:50:49;;;;;;;4.07;1.75;;;-2.70;99.90;;;;;;5000369;28;20022;-76
2021/01/15 01:53:18;;;;;;;2.47;1.45;;;-2.80;99.90;;;;;;4992705;28;20037;-76
2021/01/15 01:55:47;;;;;;;4.45;2.03;;;-2.80;99.90;;;;;;4992336;28;20502;-75
2021/01/15 01:58:16;;;;;;;4.45;1.70;;;-2.90;99.90;;;;;;4992267;28;20046;-75
2021/01/15 02:00:46;;;;;;;2.42;1.17;;;-2.90;99.90;;;;;;4991723;28;20035;-75
2021/01/15 02:03:18;;;;;;;4.50;1.63;;;-2.90;99.90;;;;;;4992532;28;20026;-75
2021/01/15 02:05:45;;;;;;;4.93;1.83;;;-2.90;99.90;;;;;;4991274;28;20046;-75
2021/01/15 02:08:11;;;;;;;5.57;1.70;;;-2.90;99.90;;;;;;4991780;28;20050;-76
2021/01/15 02:11:14;;;;;;;6.45;3.78;;;-2.90;99.90;;;;;;4992647;28;20376;-75
2021/01/15 02:13:55;;;;;;;2.80;1.80;;;-2.90;99.90;;;;;;4992009;28;20480;-77
2021/01/15 02:16:27;;;;;;;3.72;1.77;;;-2.80;99.90;;;;;;5001996;28;20038;-75
2021/01/15 02:19:20;;;;;;;3.00;1.65;;;-2.70;99.90;;;;;;4991783;28;20046;-75
2021/01/15 02:22:10;;;;;;;5.53;2.00;;;-2.70;99.90;;;;;;5011165;28;20041;-76
2021/01/15 02:24:36;;;;;;;5.85;1.90;;;-2.60;99.90;;;;;;4992345;28;20030;-75
2021/01/15 02:27:40;;;;;;;4.97;1.90;;;-2.50;99.90;;;;;;4992524;28;20031;-75
2021/01/15 02:30:17;;;;;;;3.95;2.00;;;-2.40;99.90;;;;;;4981504;28;20045;-76
2021/01/15 02:32:59;;;;;;;4.45;2.47;;;-2.40;99.90;;;;;;4996276;28;20027;-75
2021/01/15 02:35:48;;;;;;;6.95;2.50;;;-2.30;99.90;;;;;;4995577;28;20053;-76
2021/01/15 02:38:34;;;;;;;3.75;2.08;;;-2.40;99.90;;;;;;5013096;28;20031;-76
2021/01/15 02:41:27;;;;;;;3.65;1.90;;;-2.30;99.90;;;;;;4995635;28;20384;-75
2021/01/15 02:43:57;;;;;;;6.43;1.92;;;-2.40;99.90;;;;;;4995157;28;20491;-76
2021/01/15 02:46:58;;;;;;;5.25;2.28;;;-2.40;99.90;;;;;;4995762;28;20387;-76
2021/01/15 02:49:25;;;;;;;4.60;1.73;;;-2.50;99.90;;;;;;4978643;28;20034;-75
2021/01/15 02:51:53;;;;;;;5.55;2.08;;;-2.50;99.90;;;;;;4994965;28;20045;-75
2021/01/15 02:54:20;;;;;;;4.65;1.77;;;-2.60;99.90;;;;;;4978523;28;20030;-75
2021/01/15 02:56:46;;;;;;;6.03;2.13;;;-2.60;99.90;;;;;;4995232;28;20392;-76
2021/01/15 02:59:12;;;;;;;4.18;1.83;;;-2.70;99.90;;;;;;4995158;28;20046;-76
2021/01/15 03:01:54;;;;;;;4.43;2.15;;;-2.70;99.90;;;;;;4996213;28;20042;-76
2021/01/15 03:04:31;;;;;;;5.88;2.15;;;-2.90;99.90;;;;;;4994633;28;20038;-75
2021/01/15 03:07:01;;;;;;;6.38;1.80;;;-2.80;99.90;;;;;;4994891;28;20031;-76
2021/01/15 03:09:32;;;;;;;7.50;2.10;;;-2.80;99.90;;;;;;4995488;28;20038;-76
2021/01/15 03:12:00;;;;;;;5.43;1.60;;;-2.90;99.90;;;;;;4994750;28;20026;-76
2021/01/15 03:14:28;;;;;;;4.13;2.17;;;-2.90;99.90;;;;;;4995172;28;20030;-76
2021/01/15 03:16:55;;;;;;;4.93;1.85;;;-3.00;99.90;;;;;;4985516;28;20041;-76
2021/01/15 03:19:22;;;;;;;4.30;2.03;;;-3.10;99.90;;;;;;4995191;28;20042;-76
2021/01/15 03:21:50;;;;;;;3.35;1.70;;;-3.00;99.90;;;;;;4994540;28;20034;-76
2021/01/15 03:24:17;;;;;;;4.68;2.30;;;-3.00;99.90;;;;;;4994678;28;20038;-76
2021/01/15 03:26:43;;;;;;;3.75;2.45;;;-3.00;99.90;;;;;;4993671;28;20058;-77
2021/01/15 03:29:15;;;;;;;4.63;2.20;;;-3.00;99.90;;;;;;4995711;28;20053;-76
2021/01/15 03:31:44;;;;;;;6.20;2.65;;;-3.00;99.90;;;;;;4994243;28;20023;-76
2021/01/15 03:34:10;;;;;;;6.32;2.03;;;-3.00;99.90;;;;;;4994779;28;20034;-76
2021/01/15 03:36:37;;;;;;;4.18;2.03;;;-2.90;99.90;;;;;;4994805;28;20057;-76
2021/01/15 03:39:03;;;;;;;5.05;2.10;;;-2.80;99.90;;;;;;4994123;28;20048;-76
2021/01/15 03:41:29;;;;;;;5.50;2.15;;;-2.80;99.90;;;;;;4994615;28;20030;-76
2021/01/15 03:43:56;;;;;;;4.80;2.60;;;-2.70;99.90;;;;;;5001559;28;20038;-77
2021/01/15 03:46:22;;;;;;;4.50;2.30;;;-2.60;99.90;;;;;;5009314;28;20427;-76
2021/01/15 03:48:48;;;;;;;6.22;2.20;;;-2.60;99.90;;;;;;4994073;28;20041;-77
2021/01/15 03:51:14;;;;;;;6.78;2.30;;;-2.60;99.90;;;;;;4994418;28;20030;-76
2021/01/15 03:53:44;;;;;;;6.47;2.70;;;-2.50;99.90;;;;;;4994742;28;20448;-77
2021/01/15 03:56:11;;;;;;;6.32;3.30;;;-2.40;99.90;;;;;;4994369;28;20388;-78
2021/01/15 03:58:37;;;;;;;4.05;2.55;;;-2.30;99.90;;;;;;5003073;28;20395;-76
2021/01/15 04:01:04;;;;;;;12.10;3.28;;;-2.30;99.90;;;;;;4994049;28;20026;-77
2021/01/15 04:03:30;;;;;;;4.78;2.38;;;-2.30;99.90;;;;;;4994521;28;20038;-77
2021/01/15 04:05:56;;;;;;;6.35;2.50;;;-2.30;99.90;;;;;;4993665;28;20033;-77
2021/01/15 04:08:22;;;;;;;8.18;2.75;;;-2.30;99.90;;;;;;4994541;28;20387;-76
2021/01/15 04:10:49;;;;;;;6.43;3.17;;;-2.30;99.90;;;;;;4992434;28;20496;-78
2021/01/15 04:13:15;;;;;;;6.55;3.00;;;-2.40;99.90;;;;;;4994474;28;20038;-77
2021/01/15 04:15:41;;;;;;;6.70;2.60;;;-2.40;99.90;;;;;;4994107;28;20396;-77
2021/01/15 04:18:07;;;;;;;6.43;2.55;;;-2.30;99.90;;;;;;4993406;28;20057;-76
2021/01/15 04:20:33;;;;;;;5.70;2.85;;;-2.30;99.90;;;;;;4994377;28;20411;-76
2021/01/15 04:23:00;;;;;;;5.32;2.80;;;-2.30;99.90;;;;;;4991313;28;20058;-77
2021/01/15 04:25:26;;;;;;;5.45;2.90;;;-2.20;99.90;;;;;;4993838;28;20480;-77
2021/01/15 04:27:52;;;;;;;5.88;3.05;;;-2.20;99.90;;;;;;4993895;28;20369;-76
2021/01/15 04:30:19;;;;;;;5.20;2.58;;;-2.20;99.90;;;;;;4994128;28;20046;-77
2021/01/15 04:32:49;;;;;;;5.35;2.55;;;-2.20;99.90;;;;;;4993573;28;20045;-77
2021/01/15 04:35:17;;;;;;;9.13;2.88;;;-2.20;99.90;;;;;;4993843;28;20038;-77
2021/01/15 04:37:44;;;;;;;4.85;2.63;;;-2.20;99.90;;;;;;4977393;28;20064;-77
2021/01/15 04:40:11;;;;;;;4.85;2.55;;;-2.20;99.90;;;;;;4993609;28;20388;-77
2021/01/15 04:42:45;;;;;;;5.00;2.40;;;-2.20;99.90;;;;;;4993793;28;20460;-77
2021/01/15 04:45:16;;;;;;;4.72;2.30;;;-2.20;99.90;;;;;;4977240;28;20037;-77
2021/01/15 04:47:45;;;;;;;3.72;2.20;;;-2.20;99.90;;;;;;4993215;28;20057;-74
2021/01/15 04:50:13;;;;;;;6.93;3.53;;;-2.20;99.90;;;;;;4993433;28;20026;-75
2021/01/15 04:52:52;;;;;;;3.70;2.17;;;-2.20;99.90;;;;;;4993486;28;20030;-75
2021/01/15 04:55:24;;;;;;;5.20;2.30;;;-2.20;99.90;;;;;;4990398;28;20472;-75
2021/01/15 04:57:54;;;;;;;8.55;3.15;;;-2.20;99.90;;;;;;4996582;28;20041;-76
2021/01/15 05:00:22;;;;;;;3.13;1.65;;;-2.30;99.90;;;;;;4993702;28;20361;-76
2021/01/15 05:02:49;;;;;;;4.88;2.35;;;-2.30;99.90;;;;;;4992804;28;20045;-75
2021/01/15 05:05:26;;;;;;;4.03;2.08;;;-2.50;99.90;;;;;;4992976;28;20030;-74
2021/01/15 05:08:15;;;;;;;3.80;2.22;;;-2.50;99.90;;;;;;4993093;28;20038;-75
2021/01/15 05:10:48;;;;;;;6.03;3.00;;;-2.50;99.90;;;;;;4993042;28;20030;-75
2021/01/15 05:13:16;;;;;;;7.80;3.17;;;-2.50;99.90;;;;;;4993331;28;20387;-75
2021/01/15 05:15:45;;;;;;;6.18;2.67;;;-2.50;99.90;;;;;;4992199;28;20050;-75
2021/01/15 05:18:12;;;;;;;7.25;2.53;;;-2.50;99.90;;;;;;4993292;28;20034;-75
2021/01/15 05:20:39;;;;;;;8.38;2.65;;;-2.60;99.90;;;;;;4992846;28;20030;-76
2021/01/15 05:23:07;;;;;;;7.22;2.67;;;-2.60;99.90;;;;;;4992267;28;20432;-76
2021/01/15 05:25:42;;;;;;;5.05;2.33;;;-2.70;99.90;;;;;;5012193;28;20060;-75
2021/01/15 05:28:09;;;;;;;6.65;3.45;;;-2.70;99.90;;;;;;4992837;28;20034;-76
2021/01/15 05:30:38;;;;;;;6.38;3.05;;;-2.70;99.90;;;;;;5004328;28;20038;-75
2021/01/15 05:33:14;;;;;;;5.68;2.90;;;-2.80;99.90;;;;;;4992612;28;20041;-75
2021/01/15 05:35:47;;;;;;;4.85;2.13;;;-2.90;99.90;;;;;;4991996;28;20118;-75
2021/01/15 05:38:15;;;;;;;7.85;2.72;;;-2.90;99.90;;;;;;4993064;28;20034;-75
2021/01/15 05:40:41;;;;;;;7.43;3.30;;;-3.00;99.90;;;;;;4992703;28;20034;-75
2021/01/15 05:43:30;;;;;;;8.93;2.97;;;-3.00;99.90;;;;;;4992724;28;20037;-75
2021/01/15 05:46:20;;;;;;;5.68;2.75;;;-3.00;99.90;;;;;;4992385;28;20046;-75
2021/01/15 05:48:49;;;;;;;6.78;3.10;;;-3.00;99.90;;;;;;4992646;28;20034;-76
2021/01/15 05:51:25;;;;;;;4.40;2.33;;;-3.00;99.90;;;;;;4992840;28;20034;-75
2021/01/15 05:53:55;;;;;;;6.35;3.42;;;-3.00;99.90;;;;;;4992383;28;20028;-74
2021/01/15 05:56:23;;;;;;;16.90;6.55;;;-3.00;99.90;;;;;;4992746;28;20057;-74
2021/01/15 05:59:06;;;;;;;14.23;7.82;;;-3.00;99.90;;;;;;4991853;28;20057;-75
2021/01/15 06:01:41;;;;;;;13.20;9.07;;;-2.90;99.90;;;;;;4974711;28;20047;-74
2021/01/15 06:04:10;;;;;;;10.57;6.95;;;-2.90;99.90;;;;;;4992248;28;20029;-74
2021/01/15 06:06:38;;;;;;;28.35;18.00;;;-3.00;99.90;;;;;;4994096;28;20065;-74
2021/01/15 06:09:06;;;;;;;26.65;13.02;;;-3.00;99.90;;;;;;4996314;28;20026;-74
2021/01/15 06:11:37;;;;;;;13.07;7.13;;;-3.10;99.90;;;;;;4996111;28;20038;-74
2021/01/15 06:14:25;;;;;;;15.02;6.65;;;-3.10;99.90;;;;;;4995569;28;20042;-75
2021/01/15 06:17:08;;;;;;;7.32;4.30;;;-3.10;99.90;;;;;;4995650;28;20030;-75
2021/01/15 06:19:47;;;;;;;9.65;5.22;;;-3.20;99.90;;;;;;4997002;28;20057;-74
2021/01/15 06:22:32;;;;;;;13.32;8.88;;;-3.20;99.90;;;;;;5013281;28;20049;-74
2021/01/15 06:25:04;;;;;;;16.98;11.70;;;-3.40;99.90;;;;;;5006183;28;20049;-74
2021/01/15 06:27:42;;;;;;;11.50;6.78;;;-3.30;99.90;;;;;;4996235;28;20042;-75
2021/01/15 06:30:23;;;;;;;10.40;4.45;;;-3.30;99.90;;;;;;4995541;28;20054;-75
2021/01/15 06:32:50;;;;;;;8.27;3.83;;;-3.20;99.90;;;;;;4995795;28;20057;-76
2021/01/15 06:35:34;;;;;;;7.03;4.10;;;-3.10;99.90;;;;;;4996308;28;20037;-75
2021/01/15 06:38:05;;;;;;;7.55;5.38;;;-3.10;99.90;;;;;;4995675;28;20357;-75
2021/01/15 06:40:34;;;;;;;;;;;-3.00;99.90;;;;;;4996148;28;20472;-75
2021/01/15 06:43:04;;;;;;;9.88;4.85;;;-3.00;99.90;;;;;;4995849;28;19910;-76
2021/01/15 06:45:57;;;;;;;7.18;4.57;;;-2.80;99.90;;;;;;4995460;28;20046;-76
2021/01/15 06:48:31;;;;;;;6.38;3.47;;;-2.70;99.90;;;;;;4992513;28;20061;-75
2021/01/15 06:50:58;;;;;;;9.07;5.28;;;-2.70;99.90;;;;;;4995086;28;20031;-76
2021/01/15 06:53:28;;;;;;;10.98;6.05;;;-2.70;99.90;;;;;;4995432;28;20375;-74
2021/01/15 06:55:57;;;;;;;11.77;6.40;;;-2.60;99.90;;;;;;4995153;28;20053;-74
2021/01/15 06:58:23;;;;;;;14.02;7.93;;;-2.60;99.90;;;;;;4995481;28;20053;-74
2021/01/15 07:01:21;;;;;;;19.13;7.80;;;-2.50;99.90;;;;;;4994740;28;20057;-74
2021/01/15 07:03:53;;;;;;;12.27;7.05;;;-2.40;99.90;;;;;;4995305;28;20038;-78
2021/01/15 07:06:36;;;;;;;9.65;4.90;;;-2.40;99.90;;;;;;4995091;28;20041;-74
2021/01/15 07:09:08;;;;;;;9.48;4.78;;;-2.60;99.90;;;;;;4997675;28;20034;-74
2021/01/15 07:11:34;;;;;;;;;;;-2.70;99.90;;;;;;4995620;28;20049;-74
2021/01/15 07:14:05;;;;;;;6.65;3.65;;;-2.80;99.90;;;;;;4985260;28;19910;-74
2021/01/15 07:16:39;;;;;;;7.97;3.45;;;-2.80;99.90;;;;;;4994517;28;20490;-74
2021/01/15 07:19:05;;;;;;;7.90;3.88;;;-2.90;99.90;;;;;;4994424;28;20510;-74
2021/01/15 07:21:56;;;;;;;7.10;3.58;;;-2.90;99.90;;;;;;4981682;28;20026;-74
2021/01/15 07:24:28;;;;;;;7.35;3.70;;;-3.00;99.90;;;;;;5002862;28;20244;-74
2021/01/15 07:26:55;;;;;;;8.07;3.50;;;-3.10;99.90;;;;;;5003049;28;20054;-74
2021/01/15 07:29:23;;;;;;;12.05;7.13;;;-3.10;99.90;;;;;;4987730;28;20483;-74
2021/01/15 07:31:58;;;;;;;15.15;8.20;;;-3.10;99.90;;;;;;4997915;28;20044;-74
2021/01/15 07:34:26;;;;;;;16.27;8.65;;;-3.10;99.90;;;;;;5008925;28;20041;-73
2021/01/15 07:36:52;;;;;;;11.73;6.40;;;-3.10;99.90;;;;;;5002537;28;20042;-74
2021/01/15 07:39:22;;;;;;;7.63;4.40;;;-3.20;99.90;;;;;;4994431;28;20034;-73
2021/01/15 07:41:54;;;;;;;8.68;3.50;;;-3.20;99.90;;;;;;4994365;28;20042;-74
2021/01/15 07:44:23;;;;;;;8.38;3.42;;;-3.30;99.90;;;;;;4994573;28;20049;-74
2021/01/15 07:46:54;;;;;;;8.63;3.72;;;-3.30;99.90;;;;;;4998207;28;20479;-77
2021/01/15 07:49:21;;;;;;;;;;;-3.40;99.90;;;;;;4982321;28;20507;-74
2021/01/15 07:52:09;;;;;;;5.65;2.97;;;-3.40;99.90;;;;;;4992220;28;19909;-74
2021/01/15 07:54:50;;;;;;;7.10;3.15;;;-3.40;99.90;;;;;;5001556;28;20027;-73
2021/01/15 07:57:18;;;;;;;11.27;3.95;;;-3.50;99.90;;;;;;5012186;28;20417;-74
2021/01/15 07:59:47;;;;;;;8.55;4.88;;;-3.50;99.90;;;;;;5001665;28;20045;-74
2021/01/15 08:02:18;;;;;;;11.18;5.53;;;-3.50;99.90;;;;;;4992241;28;20031;-74
2021/01/15 08:04:45;;;;;;;7.40;3.72;;;-3.40;99.90;;;;;;4994167;28;20116;-74
2021/01/15 08:07:20;;;;;;;10.95;5.38;;;-3.40;99.90;;;;;;4993792;28;20041;-74
2021/01/15 08:09:46;;;;;;;8.70;4.45;;;-3.30;99.90;;;;;;5010854;28;20030;-74
2021/01/15 08:12:12;;;;;;;6.47;4.20;;;-3.30;99.90;;;;;;4996555;28;20036;-74
2021/01/15 08:14:39;;;;;;;9.60;4.32;;;-3.20;99.90;;;;;;4976216;28;20392;-74
2021/01/15 08:17:11;;;;;;;9.25;4.40;;;-3.00;99.90;;;;;;5001899;28;20053;-74
2021/01/15 08:19:38;;;;;;;8.25;3.97;;;-2.90;99.90;;;;;;5007385;28;20045;-72
2021/01/15 08:22:07;;;;;;;7.15;5.30;;;-2.70;99.90;;;;;;4993515;28;20042;-74
2021/01/15 08:25:03;;;;;;;6.70;4.38;;;-2.40;99.90;;;;;;4978551;28;20391;-74
2021/01/15 08:27:33;;;;;;;5.03;3.38;;;-2.10;99.90;;;;;;4998129;28;20041;-74
2021/01/15 08:30:06;;;;;;;7.60;4.90;;;-2.00;99.90;;;;;;4996278;28;20034;-74
2021/01/15 08:32:41;;;;;;;6.50;4.32;;;-2.00;99.90;;;;;;4993687;28;20415;-73
2021/01/15 08:35:12;;;;;;;6.80;4.20;;;-2.00;99.90;;;;;;4991621;28;20038;-74
2021/01/15 08:37:40;;;;;;;8.45;3.67;;;-2.00;99.90;;;;;;4976156;28;20042;-74
2021/01/15 08:40:06;;;;;;;7.88;4.05;;;-2.00;99.90;;;;;;4992558;28;20365;-74
2021/01/15 08:42:33;;;;;;;10.30;4.13;;;-1.90;99.90;;;;;;4993029;28;20467;-74
2021/01/15 08:44:59;;;;;;;5.75;3.60;;;-1.90;99.90;;;;;;4993878;28;20026;-75
2021/01/15 08:47:31;;;;;;;6.70;3.65;;;-1.70;99.90;;;;;;4997418;28;20463;-73
2021/01/15 08:49:57;;;;;;;;;;;-1.60;99.90;;;;;;4992346;28;20047;-73
2021/01/15 08:52:32;;;;;;;6.07;3.55;;;-1.50;99.90;;;;;;4992939;28;20362;-73
2021/01/15 08:54:59;;;;;;;9.95;4.28;;;-1.40;99.90;;;;;;4992657;28;20046;-73
2021/01/15 08:57:28;;;;;;;7.78;4.30;;;-1.30;99.90;;;;;;4992970;28;20491;-75
2021/01/15 08:59:55;;;;;;;8.23;4.13;;;-1.20;99.90;;;;;;5012516;28;20033;-74
2021/01/15 09:02:22;;;;;;;7.95;4.43;;;-1.10;99.90;;;;;;4995807;28;20034;-74
2021/01/15 09:04:53;;;;;;;6.40;4.10;;;-0.90;99.90;;;;;;4993196;28;20391;-74
2021/01/15 09:07:21;;;;;;;7.65;4.97;;;-0.90;99.90;;;;;;4993061;28;20033;-74
2021/01/15 09:09:50;;;;;;;7.20;4.32;;;-0.70;99.90;;;;;;4993376;28;20037;-74
2021/01/15 09:12:20;;;;;;;9.10;5.22;;;-0.60;99.90;;;;;;4993062;28;20035;-74
2021/01/15 09:14:48;;;;;;;7.40;3.92;;;-0.60;99.90;;;;;;4993046;28;20030;-74
2021/01/15 09:17:15;;;;;;;8.98;4.82;;;-0.40;99.90;;;;;;4992352;28;20026;-74
2021/01/15 09:19:41;;;;;;;7.65;4.28;;;-0.40;99.90;;;;;;4975911;28;20049;-74
2021/01/15 09:22:17;;;;;;;8.23;3.92;;;-0.30;99.90;;;;;;4992630;28;20033;-73
2021/01/15 09:24:44;;;;;;;9.30;3.67;;;-0.20;99.90;;;;;;4993072;28;20041;-74
2021/01/15 09:27:10;;;;;;;8.63;3.95;;;-0.10;99.90;;;;;;4992798;28;20042;-73
2021/01/15 09:29:38;;;;;;;8.88;3.78;;;0.00;99.90;;;;;;4994948;28;20026;-73
2021/01/15 09:32:05;;;;;;;8.00;4.10;;;0.10;99.90;;;;;;5002893;28;20042;-73
2021/01/15 09:34:31;;;;;;;6.47;3.75;;;0.10;99.90;;;;;;4992708;28;20065;-74
2021/01/15 09:36:58;;;;;;;8.75;4.25;;;0.10;99.90;;;;;;4991397;28;20050;-73
2021/01/15 09:39:26;;;;;;;6.80;3.83;;;0.20;99.90;;;;;;4993029;28;20045;-73
2021/01/15 09:41:58;;;;;;;9.00;4.22;;;0.40;99.90;;;;;;4996306;28;20106;-74
2021/01/15 09:44:25;;;;;;;;;;;0.40;99.90;;;;;;4997580;28;20038;-74
2021/01/15 09:47:01;;;;;;;5.90;3.63;;;0.40;99.90;;;;;;4995817;28;19917;-76
2021/01/15 09:49:28;;;;;;;5.25;3.63;;;0.50;99.90;;;;;;4991531;28;20042;-74
2021/01/15 09:51:54;;;;;;;10.85;4.30;;;0.50;99.90;;;;;;4996549;28;20041;-74
2021/01/15 09:54:21;;;;;;;6.78;4.25;;;0.60;99.90;;;;;;4996438;28;20027;-74
2021/01/15 09:56:47;;;;;;;8.43;3.85;;;0.70;99.90;;;;;;4996736;28;20046;-74
2021/01/15 09:59:16;;;;;;;5.95;3.25;;;0.70;99.90;;;;;;4995249;28;20118;-73
2021/01/15 10:01:43;;;;;;;7.72;3.17;;;0.80;99.90;;;;;;4996032;28;20050;-74
2021/01/15 10:04:09;;;;;;;5.70;3.28;;;0.90;99.90;;;;;;4995351;28;20468;-75
2021/01/15 10:06:40;;;;;;;6.78;3.53;;;1.00;99.90;;;;;;4995975;28;20396;-73
2021/01/15 10:09:08;;;;;;;7.57;3.45;;;1.00;99.90;;;;;;4996292;28;20035;-74
2021/01/15 10:11:36;;;;;;;5.40;2.70;;;1.00;99.90;;;;;;4996182;28;20047;-74
2021/01/15 10:14:06;;;;;;;6.78;3.25;;;1.00;99.90;;;;;;4995970;28;20049;-74
2021/01/15 10:16:52;;;;;;;4.95;2.80;;;1.10;99.90;;;;;;4995815;28;20038;-74
2021/01/15 10:19:22;;;;;;;5.28;3.00;;;1.20;99.90;;;;;;4996062;28;20038;-74
2021/01/15 10:21:48;;;;;;;6.70;2.65;;;1.20;99.90;;;;;;4996097;28;20026;-73
2021/01/15 10:24:15;;;;;;;5.38;2.75;;;1.20;99.90;;;;;;4994939;28;20042;-74
2021/01/15 10:26:42;;;;;;;5.72;3.08;;;1.30;99.90;;;;;;4996250;28;20058;-74
2021/01/15 10:29:10;;;;;;;5.18;3.25;;;1.20;99.90;;;;;;4995884;28;20038;-74
2021/01/15 10:31:54;;;;;;;6.88;3.67;;;1.30;99.90;;;;;;4995640;28;20038;-74
2021/01/15 10:34:24;;;;;;;6.78;4.10;;;1.40;99.90;;;;;;4995771;28;20037;-72
2021/01/15 10:36:52;;;;;;;5.22;2.70;;;1.50;99.90;;;;;;4997549;28;20038;-74
2021/01/15 10:39:19;;;;;;;6.03;3.30;;;1.50;99.90;;;;;;5014521;28;20382;-73
2021/01/15 10:41:48;;;;;;;4.97;2.78;;;1.60;99.90;;;;;;4996102;28;20480;-73
2021/01/15 10:44:16;;;;;;;6.60;3.72;;;1.60;99.70;;;;;;5007971;28;20042;-74
2021/01/15 10:46:44;;;;;;;6.40;2.97;;;1.70;99.60;;;;;;4995817;28;20034;-74
2021/01/15 10:49:12;;;;;;;5.50;3.53;;;1.80;99.10;;;;;;4996166;28;20049;-73
2021/01/15 10:51:46;;;;;;;6.80;3.92;;;1.70;98.40;;;;;;4993990;28;20039;-73
2021/01/15 10:54:13;;;;;;;6.68;3.20;;;1.80;98.00;;;;;;4995156;28;20049;-73
2021/01/15 10:56:51;;;;;;;9.98;6.10;;;1.90;97.10;;;;;;4995420;28;20046;-73
2021/01/15 10:59:18;;;;;;;4.53;2.58;;;2.00;96.00;;;;;;4995274;28;20038;-72
2021/01/15 11:01:49;;;;;;;5.47;2.85;;;2.00;93.80;;;;;;4999039;28;20464;-74
2021/01/15 11:04:16;;;;;;;;;;;2.00;92.20;;;;;;4995408;28;20033;-74
2021/01/15 11:06:45;;;;;;;8.63;3.15;;;2.10;93.30;;;;;;4995469;28;20287;-74
2021/01/15 11:09:19;;;;;;;5.22;2.80;;;2.20;93.20;;;;;;4994736;28;20030;-74
2021/01/15 11:11:46;;;;;;;6.57;3.75;;;2.20;92.50;;;;;;4994509;28;20045;-74
2021/01/15 11:14:14;;;;;;;7.00;3.45;;;2.20;92.60;;;;;;4993944;28;20038;-74
2021/01/15 11:16:40;;;;;;;7.80;3.17;;;2.30;90.70;;;;;;4995106;28;20045;-73
2021/01/15 11:19:07;;;;;;;5.75;3.42;;;2.30;91.50;;;;;;4994621;28;20045;-74
2021/01/15 11:21:33;;;;;;;6.55;3.75;;;2.40;92.00;;;;;;4994770;28;20046;-74
2021/01/15 11:23:59;;;;;;;8.27;4.15;;;2.40;91.90;;;;;;4994620;28;20030;-74
2021/01/15 11:26:27;;;;;;;5.95;3.13;;;2.40;91.20;;;;;;4994742;28;20484;-74
2021/01/15 11:28:58;;;;;;;6.15;3.30;;;2.40;90.90;;;;;;4994745;28;20026;-74
2021/01/15 11:31:25;;;;;;;9.20;3.85;;;2.40;90.00;;;;;;4994805;28;20031;-74
2021/01/15 11:33:52;;;;;;;6.75;3.70;;;2.50;88.50;;;;;;4994843;28;20033;-74
2021/01/15 11:36:19;;;;;;;8.00;4.38;;;2.50;90.00;;;;;;4993849;28;20045;-74
2021/01/15 11:38:47;;;;;;;7.47;3.90;;;2.60;90.00;;;;;;4994047;28;20053;-74
2021/01/15 11:41:15;;;;;;;8.20;5.13;;;2.70;90.10;;;;;;4994137;28;20042;-74
2021/01/15 11:43:43;;;;;;;7.20;4.07;;;2.70;90.00;;;;;;4994473;28;20027;-73
2021/01/15 11:46:10;;;;;;;5.82;4.18;;;2.60;89.40;;;;;;4994330;28;20384;-74
2021/01/15 11:48:37;;;;;;;7.85;5.20;;;2.70;90.20;;;;;;4993995;28;20042;-74
2021/01/15 11:51:09;;;;;;;8.10;4.20;;;2.70;89.30;;;;;;4994004;28;20046;-76
2021/01/15 11:53:37;;;;;;;10.98;4.85;;;2.80;90.10;;;;;;4994088;28;20404;-75
2021/01/15 11:56:05;;;;;;;7.13;5.03;;;2.80;88.20;;;;;;4993710;28;20038;-73
2021/01/15 11:58:31;;;;;;;8.98;5.00;;;2.70;88.80;;;;;;4993949;28;20464;-74
2021/01/15 12:00:58;;;;;;;6.85;4.30;;;2.60;89.10;;;;;;4993466;28;20392;-76
2021/01/15 12:03:25;;;;;;;9.88;5.10;;;2.60;88.80;;;;;;4993887;28;20037;-73
2021/01/15 12:05:52;;;;;;;9.20;5.65;;;2.80;88.20;;;;;;4977103;28;20034;-74
2021/01/15 12:08:23;;;;;;;8.38;5.00;;;3.10;85.60;;;;;;4992939;28;20543;-74
2021/01/15 12:10:50;;;;;;;;;;;3.20;85.30;;;;;;4994502;28;20381;-73
2021/01/15 12:13:16;;;;;;;10.88;5.70;;;3.20;86.40;;;;;;4993342;28;20343;-73
2021/01/15 12:15:48;;;;;;;9.55;5.65;;;3.00;88.20;;;;;;4993390;28;20038;-75
2021/01/15 12:18:14;;;;;;;8.68;5.20;;;2.80;90.00;;;;;;4992096;28;20420;-73
2021/01/15 12:20:41;;;;;;;10.45;5.82;;;2.80;90.90;;;;;;4993674;28;20482;-73
2021/01/15 12:23:07;;;;;;;8.38;4.80;;;2.90;89.00;;;;;;4992726;28;20034;-73
2021/01/15 12:25:39;;;;;;;8.80;5.13;;;2.70;86.60;;;;;;4992965;28;20049;-74
2021/01/15 12:28:10;;;;;;;10.25;5.07;;;2.60;88.70;;;;;;4993202;28;20030;-75
2021/01/15 12:30:37;;;;;;;8.10;4.97;;;2.50;88.50;;;;;;4993504;28;20030;-75
2021/01/15 12:33:05;;;;;;;9.52;5.47;;;2.40;88.70;;;;;;4976792;28;20034;-74
2021/01/15 12:35:31;;;;;;;8.23;5.72;;;2.50;90.20;;;;;;4994160;28;20049;-75
2021/01/15 12:38:08;;;;;;;13.43;5.65;;;2.60;89.70;;;;;;4992629;28;20042;-75
2021/01/15 12:40:35;;;;;;;13.82;6.95;;;2.50;90.50;;;;;;4992486;28;20476;-74
2021/01/15 12:43:05;;;;;;;11.95;6.47;;;2.60;91.50;;;;;;4977938;28;20030;-75
2021/01/15 12:45:39;;;;;;;11.45;7.85;;;2.60;91.90;;;;;;4976523;28;20389;-77
2021/01/15 12:48:07;;;;;;;14.85;6.63;;;2.40;93.50;;;;;;4975968;28;20050;-76
2021/01/15 12:50:33;;;;;;;16.23;6.88;;;2.60;94.40;;;;;;4993105;28;20041;-76
2021/01/15 12:52:59;;;;;;;12.60;7.15;;;2.60;93.80;;;;;;4992351;28;20392;-76
2021/01/15 12:55:27;;;;;;;13.07;7.55;;;2.60;94.50;;;;;;4993158;28;20049;-75
2021/01/15 12:57:55;;;;;;;13.77;7.78;;;2.70;94.30;;;;;;4992626;28;20049;-75
2021/01/15 13:00:22;;;;;;;12.70;6.25;;;2.60;94.20;;;;;;4987990;28;20042;-76
2021/01/15 13:02:49;;;;;;;13.13;6.85;;;2.70;94.60;;;;;;4975736;28;20030;-76
2021/01/15 13:05:16;;;;;;;12.05;7.35;;;2.80;94.00;;;;;;4998215;28;20486;-76
2021/01/15 13:07:43;;;;;;;9.48;5.97;;;2.90;93.70;;;;;;4999009;28;20034;-75